sensor_id;sensor_type;location;lat;lon;timestamp;temperature;humidity
36002;DHT22;22070;50.922;5.430;2023-04-24T00:00:06;10.00;99.90
36002;DHT22;22070;50.922;5.430;2023-04-24T00:02:32;10.10;99.90
36002;DHT22;22070;50.922;5.430;2023-04-24T00:04:58;10.00;99.90
36002;DHT22;22070;50.922;5.430;2023-04-24T00:07:29;10.00;99.90
36002;DHT22;22070;50.922;5.430;2023-04-24T00:09:54;10.10;99.90
36002;DHT22;22070;50.922;5.430;2023-04-24T00:12:20;10.00;99.90
36002;DHT22;22070;50.922;5.430;2023-04-24T00:14:46;10.00;99.90
36002;DHT22;22070;50.922;5.430;2023-04-24T00:17:12;10.00;99.90
36002;DHT22;22070;50.922;5.430;2023-04-24T00:19:37;10.00;99.90
36002;DHT22;22070;50.922;5.430;2023-04-24T00:22:03;10.00;99.90
36002;DHT22;22070;50.922;5.430;2023-04-24T00:24:29;10.00;99.90
36002;DHT22;22070;50.922;5.430;2023-04-24T00:26:55;10.00;99.90
36002;DHT22;22070;50.922;5.430;2023-04-24T00:29:20;10.00;99.90
36002;DHT22;22070;50.922;5.430;2023-04-24T00:31:46;9.90;99.90
36002;DHT22;22070;50.922;5.430;2023-04-24T00:34:12;9.80;99.90
36002;DHT22;22070;50.922;5.430;2023-04-24T00:36:38;9.80;99.90
36002;DHT22;22070;50.922;5.430;2023-04-24T00:39:03;9.90;99.90
36002;DHT22;22070;50.922;5.430;2023-04-24T00:41:29;9.90;99.90
36002;DHT22;22070;50.922;5.430;2023-04-24T00:43:55;9.90;99.90
36002;DHT22;22070;50.922;5.430;2023-04-24T00:46:21;9.90;99.90
36002;DHT22;22070;50.922;5.430;2023-04-24T00:48:47;9.90;99.90
36002;DHT22;22070;50.922;5.430;2023-04-24T00:51:13;9.90;99.90
36002;DHT22;22070;50.922;5.430;2023-04-24T00:53:38;9.90;99.90
36002;DHT22;22070;50.922;5.430;2023-04-24T00:56:05;9.90;99.90
36002;DHT22;22070;50.922;5.430;2023-04-24T00:58:31;9.90;99.90
36002;DHT22;22070;50.922;5.430;2023-04-24T01:00:57;9.90;99.90
36002;DHT22;22070;50.922;5.430;2023-04-24T01:03:27;9.90;99.90
36002;DHT22;22070;50.922;5.430;2023-04-24T01:05:54;9.90;99.90
36002;DHT22;22070;50.922;5.430;2023-04-24T01:08:21;9.80;99.90
36002;DHT22;22070;50.922;5.430;2023-04-24T01:10:48;9.80;99.90
36002;DHT22;22070;50.922;5.430;2023-04-24T01:13:15;9.90;99.90
36002;DHT22;22070;50.922;5.430;2023-04-24T01:15:41;9.90;99.90
36002;DHT22;22070;50.922;5.430;2023-04-24T01:18:06;9.90;99.90
36002;DHT22;22070;50.922;5.430;2023-04-24T01:20:33;9.90;99.90
36002;DHT22;22070;50.922;5.430;2023-04-24T01:22:59;9.80;99.90
36002;DHT22;22070;50.922;5.430;2023-04-24T01:25:25;9.80;99.90
36002;DHT22;22070;50.922;5.430;2023-04-24T01:27:52;9.80;99.90
36002;DHT22;22070;50.922;5.430;2023-04-24T01:30:18;9.80;99.90
36002;DHT22;22070;50.922;5.430;2023-04-24T01:32:44;9.80;99.90
36002;DHT22;22070;50.922;5.430;2023-04-24T01:35:10;9.80;99.90
36002;DHT22;22070;50.922;5.430;2023-04-24T01:37:36;9.80;99.90
36002;DHT22;22070;50.922;5.430;2023-04-24T01:40:06;9.80;99.90
36002;DHT22;22070;50.922;5.430;2023-04-24T01:42:33;9.80;99.90
36002;DHT22;22070;50.922;5.430;2023-04-24T01:44:59;9.80;99.90
36002;DHT22;22070;50.922;5.430;2023-04-24T01:47:26;9.80;99.90
36002;DHT22;22070;50.922;5.430;2023-04-24T01:49:52;9.90;99.90
36002;DHT22;22070;50.922;5.430;2023-04-24T01:52:18;9.90;99.90
36002;DHT22;22070;50.922;5.430;2023-04-24T01:54:44;9.90;99.90
36002;DHT22;22070;50.922;5.430;2023-04-24T01:57:10;9.80;99.90
36002;DHT22;22070;50.922;5.430;2023-04-24T01:59:36;9.80;99.90
36002;DHT22;22070;50.922;5.430;2023-04-24T02:02:02;9.80;99.90
36002;DHT22;22070;50.922;5.430;2023-04-24T02:04:28;9.90;99.90
36002;DHT22;22070;50.922;5.430;2023-04-24T02:06:54;9.90;99.90
36002;DHT22;22070;50.922;5.430;2023-04-24T02:09:20;9.90;99.90
36002;DHT22;22070;50.922;5.430;2023-04-24T02:11:46;9.90;99.90
36002;DHT22;22070;50.922;5.430;2023-04-24T02:14:12;9.80;99.90
36002;DHT22;22070;50.922;5.430;2023-04-24T02:16:37;9.80;99.90
36002;DHT22;22070;50.922;5.430;2023-04-24T02:19:03;9.70;99.90
36002;DHT22;22070;50.922;5.430;2023-04-24T02:21:29;9.70;99.90
36002;DHT22;22070;50.922;5.430;2023-04-24T02:23:56;9.60;99.90
36002;DHT22;22070;50.922;5.430;2023-04-24T02:26:22;9.60;99.90
36002;DHT22;22070;50.922;5.430;2023-04-24T02:28:47;9.60;99.90
36002;DHT22;22070;50.922;5.430;2023-04-24T02:31:14;9.50;99.90
36002;DHT22;22070;50.922;5.430;2023-04-24T02:33:39;9.50;99.90
36002;DHT22;22070;50.922;5.430;2023-04-24T02:36:05;9.50;99.90
36002;DHT22;22070;50.922;5.430;2023-04-24T02:38:31;9.50;99.90
36002;DHT22;22070;50.922;5.430;2023-04-24T02:40:57;9.40;99.90
36002;DHT22;22070;50.922;5.430;2023-04-24T02:43:22;9.40;99.90
36002;DHT22;22070;50.922;5.430;2023-04-24T02:45:48;9.40;99.90
36002;DHT22;22070;50.922;5.430;2023-04-24T02:48:14;9.40;99.90
36002;DHT22;22070;50.922;5.430;2023-04-24T02:50:40;9.30;99.90
36002;DHT22;22070;50.922;5.430;2023-04-24T02:53:06;9.30;99.90
36002;DHT22;22070;50.922;5.430;2023-04-24T02:55:31;9.20;99.90
36002;DHT22;22070;50.922;5.430;2023-04-24T02:57:57;9.20;99.90
36002;DHT22;22070;50.922;5.430;2023-04-24T03:00:23;9.20;99.90
36002;DHT22;22070;50.922;5.430;2023-04-24T03:02:48;9.20;99.90
36002;DHT22;22070;50.922;5.430;2023-04-24T03:05:15;9.10;99.90
36002;DHT22;22070;50.922;5.430;2023-04-24T03:07:41;9.20;99.90
36002;DHT22;22070;50.922;5.430;2023-04-24T03:10:07;9.20;99.90
36002;DHT22;22070;50.922;5.430;2023-04-24T03:12:33;9.20;99.90
36002;DHT22;22070;50.922;5.430;2023-04-24T03:14:58;9.30;99.90
36002;DHT22;22070;50.922;5.430;2023-04-24T03:17:25;9.20;99.90
36002;DHT22;22070;50.922;5.430;2023-04-24T03:19:51;9.10;99.90
36002;DHT22;22070;50.922;5.430;2023-04-24T03:22:16;9.10;99.90
36002;DHT22;22070;50.922;5.430;2023-04-24T03:24:42;9.10;99.90
36002;DHT22;22070;50.922;5.430;2023-04-24T03:27:08;9.20;99.90
36002;DHT22;22070;50.922;5.430;2023-04-24T03:29:33;9.10;99.90
36002;DHT22;22070;50.922;5.430;2023-04-24T03:31:59;9.10;99.90
36002;DHT22;22070;50.922;5.430;2023-04-24T03:34:25;9.20;99.90
36002;DHT22;22070;50.922;5.430;2023-04-24T03:36:50;9.10;99.90
36002;DHT22;22070;50.922;5.430;2023-04-24T03:39:16;9.10;99.90
36002;DHT22;22070;50.922;5.430;2023-04-24T03:41:42;9.10;99.90
36002;DHT22;22070;50.922;5.430;2023-04-24T03:44:07;9.10;99.90
36002;DHT22;22070;50.922;5.430;2023-04-24T03:46:33;9.10;99.90
36002;DHT22;22070;50.922;5.430;2023-04-24T03:48:58;9.00;99.90
36002;DHT22;22070;50.922;5.430;2023-04-24T03:51:24;9.10;99.90
36002;DHT22;22070;50.922;5.430;2023-04-24T03:53:50;9.00;99.90
36002;DHT22;22070;50.922;5.430;2023-04-24T03:56:16;9.00;99.90
36002;DHT22;22070;50.922;5.430;2023-04-24T03:58:42;9.00;99.90
36002;DHT22;22070;50.922;5.430;2023-04-24T04:01:08;9.00;99.90
36002;DHT22;22070;50.922;5.430;2023-04-24T04:03:33;8.90;99.90
36002;DHT22;22070;50.922;5.430;2023-04-24T04:05:59;9.00;99.90
36002;DHT22;22070;50.922;5.430;2023-04-24T04:08:25;9.00;99.90
36002;DHT22;22070;50.922;5.430;2023-04-24T04:10:51;9.00;99.90
36002;DHT22;22070;50.922;5.430;2023-04-24T04:13:16;9.10;99.90
36002;DHT22;22070;50.922;5.430;2023-04-24T04:15:42;9.00;99.90
36002;DHT22;22070;50.922;5.430;2023-04-24T04:18:07;9.00;99.90
36002;DHT22;22070;50.922;5.430;2023-04-24T04:20:33;9.00;99.90
36002;DHT22;22070;50.922;5.430;2023-04-24T04:22:59;9.00;99.90
36002;DHT22;22070;50.922;5.430;2023-04-24T04:25:25;9.00;99.90
36002;DHT22;22070;50.922;5.430;2023-04-24T04:27:51;9.10;99.90
36002;DHT22;22070;50.922;5.430;2023-04-24T04:30:18;9.00;99.90
36002;DHT22;22070;50.922;5.430;2023-04-24T04:32:43;9.10;99.90
36002;DHT22;22070;50.922;5.430;2023-04-24T04:35:09;9.10;99.90
36002;DHT22;22070;50.922;5.430;2023-04-24T04:37:35;9.00;99.90
36002;DHT22;22070;50.922;5.430;2023-04-24T04:40:02;9.00;99.90
36002;DHT22;22070;50.922;5.430;2023-04-24T04:42:32;8.90;99.90
36002;DHT22;22070;50.922;5.430;2023-04-24T04:44:59;8.80;99.90
36002;DHT22;22070;50.922;5.430;2023-04-24T04:47:25;8.80;99.90
36002;DHT22;22070;50.922;5.430;2023-04-24T04:49:52;8.80;99.90
36002;DHT22;22070;50.922;5.430;2023-04-24T04:52:18;8.70;99.90
36002;DHT22;22070;50.922;5.430;2023-04-24T04:54:43;8.70;99.90
36002;DHT22;22070;50.922;5.430;2023-04-24T04:57:10;8.70;99.90
36002;DHT22;22070;50.922;5.430;2023-04-24T04:59:36;8.70;99.90
36002;DHT22;22070;50.922;5.430;2023-04-24T05:02:02;8.60;99.90
36002;DHT22;22070;50.922;5.430;2023-04-24T05:04:28;8.70;99.90
36002;DHT22;22070;50.922;5.430;2023-04-24T05:06:53;8.70;99.90
36002;DHT22;22070;50.922;5.430;2023-04-24T05:09:19;8.70;99.90
36002;DHT22;22070;50.922;5.430;2023-04-24T05:11:45;8.60;99.90
36002;DHT22;22070;50.922;5.430;2023-04-24T05:14:10;8.70;99.90
36002;DHT22;22070;50.922;5.430;2023-04-24T05:16:38;8.70;99.90
36002;DHT22;22070;50.922;5.430;2023-04-24T05:19:04;8.70;99.90
36002;DHT22;22070;50.922;5.430;2023-04-24T05:21:30;8.70;99.90
36002;DHT22;22070;50.922;5.430;2023-04-24T05:23:56;8.80;99.90
36002;DHT22;22070;50.922;5.430;2023-04-24T05:26:22;8.80;99.90
36002;DHT22;22070;50.922;5.430;2023-04-24T05:28:48;8.80;99.90
36002;DHT22;22070;50.922;5.430;2023-04-24T05:31:14;8.90;99.90
36002;DHT22;22070;50.922;5.430;2023-04-24T05:33:39;8.90;99.90
36002;DHT22;22070;50.922;5.430;2023-04-24T05:36:06;8.90;99.90
36002;DHT22;22070;50.922;5.430;2023-04-24T05:38:31;8.90;99.90
36002;DHT22;22070;50.922;5.430;2023-04-24T05:40:57;8.90;99.90
36002;DHT22;22070;50.922;5.430;2023-04-24T05:43:23;8.80;99.90
36002;DHT22;22070;50.922;5.430;2023-04-24T05:45:48;8.70;99.90
36002;DHT22;22070;50.922;5.430;2023-04-24T05:48:14;8.80;99.90
36002;DHT22;22070;50.922;5.430;2023-04-24T05:50:41;8.70;99.90
36002;DHT22;22070;50.922;5.430;2023-04-24T05:53:06;8.70;99.90
36002;DHT22;22070;50.922;5.430;2023-04-24T05:55:32;8.60;99.90
36002;DHT22;22070;50.922;5.430;2023-04-24T05:57:58;8.70;99.90
36002;DHT22;22070;50.922;5.430;2023-04-24T06:00:24;8.60;99.90
36002;DHT22;22070;50.922;5.430;2023-04-24T06:02:50;8.60;99.90
36002;DHT22;22070;50.922;5.430;2023-04-24T06:05:18;8.70;99.90
36002;DHT22;22070;50.922;5.430;2023-04-24T06:07:44;8.60;99.90
36002;DHT22;22070;50.922;5.430;2023-04-24T06:10:10;8.50;99.90
36002;DHT22;22070;50.922;5.430;2023-04-24T06:12:35;8.50;99.90
36002;DHT22;22070;50.922;5.430;2023-04-24T06:15:02;8.50;99.90
36002;DHT22;22070;50.922;5.430;2023-04-24T06:17:28;8.50;99.90
36002;DHT22;22070;50.922;5.430;2023-04-24T06:19:53;8.50;99.90
36002;DHT22;22070;50.922;5.430;2023-04-24T06:22:19;8.40;99.90
36002;DHT22;22070;50.922;5.430;2023-04-24T06:24:45;8.30;99.90
36002;DHT22;22070;50.922;5.430;2023-04-24T06:27:10;8.30;99.90
36002;DHT22;22070;50.922;5.430;2023-04-24T06:29:36;8.40;99.90
36002;DHT22;22070;50.922;5.430;2023-04-24T06:32:02;8.40;99.90
36002;DHT22;22070;50.922;5.430;2023-04-24T06:34:27;8.50;99.90
36002;DHT22;22070;50.922;5.430;2023-04-24T06:36:54;8.40;99.90
36002;DHT22;22070;50.922;5.430;2023-04-24T06:39:20;8.40;99.90
36002;DHT22;22070;50.922;5.430;2023-04-24T06:41:46;8.40;99.90
36002;DHT22;22070;50.922;5.430;2023-04-24T06:44:11;8.40;99.90
36002;DHT22;22070;50.922;5.430;2023-04-24T06:46:37;8.30;99.90
36002;DHT22;22070;50.922;5.430;2023-04-24T06:49:02;8.30;99.90
36002;DHT22;22070;50.922;5.430;2023-04-24T06:51:28;8.40;99.90
36002;DHT22;22070;50.922;5.430;2023-04-24T06:53:54;8.40;99.90
36002;DHT22;22070;50.922;5.430;2023-04-24T06:56:21;8.40;99.90
36002;DHT22;22070;50.922;5.430;2023-04-24T06:58:47;8.40;99.90
36002;DHT22;22070;50.922;5.430;2023-04-24T07:01:13;8.30;99.90
36002;DHT22;22070;50.922;5.430;2023-04-24T07:03:39;8.40;99.90
36002;DHT22;22070;50.922;5.430;2023-04-24T07:06:05;8.40;99.90
36002;DHT22;22070;50.922;5.430;2023-04-24T07:08:31;8.40;99.90
36002;DHT22;22070;50.922;5.430;2023-04-24T07:10:58;8.40;99.90
36002;DHT22;22070;50.922;5.430;2023-04-24T07:13:24;8.30;99.90
36002;DHT22;22070;50.922;5.430;2023-04-24T07:15:50;8.40;99.90
36002;DHT22;22070;50.922;5.430;2023-04-24T07:18:16;8.40;99.90
36002;DHT22;22070;50.922;5.430;2023-04-24T07:20:42;8.40;99.90
36002;DHT22;22070;50.922;5.430;2023-04-24T07:23:08;8.40;99.90
36002;DHT22;22070;50.922;5.430;2023-04-24T07:25:34;8.40;99.90
36002;DHT22;22070;50.922;5.430;2023-04-24T07:27:59;8.40;99.90
36002;DHT22;22070;50.922;5.430;2023-04-24T07:30:25;8.50;99.90
36002;DHT22;22070;50.922;5.430;2023-04-24T07:32:51;8.60;99.90
36002;DHT22;22070;50.922;5.430;2023-04-24T07:35:17;8.70;99.90
36002;DHT22;22070;50.922;5.430;2023-04-24T07:37:42;8.70;99.90
36002;DHT22;22070;50.922;5.430;2023-04-24T07:40:12;8.70;99.90
36002;DHT22;22070;50.922;5.430;2023-04-24T07:42:38;8.80;99.90
36002;DHT22;22070;50.922;5.430;2023-04-24T07:45:04;8.60;99.90
36002;DHT22;22070;50.922;5.430;2023-04-24T07:47:31;8.60;99.90
36002;DHT22;22070;50.922;5.430;2023-04-24T07:49:57;8.70;99.90
36002;DHT22;22070;50.922;5.430;2023-04-24T07:52:23;8.70;99.90
36002;DHT22;22070;50.922;5.430;2023-04-24T07:54:49;8.70;99.90
36002;DHT22;22070;50.922;5.430;2023-04-24T07:57:15;8.80;99.90
36002;DHT22;22070;50.922;5.430;2023-04-24T07:59:41;8.80;99.90
36002;DHT22;22070;50.922;5.430;2023-04-24T08:02:07;8.80;99.90
36002;DHT22;22070;50.922;5.430;2023-04-24T08:04:33;8.70;99.90
36002;DHT22;22070;50.922;5.430;2023-04-24T08:06:59;8.70;99.90
36002;DHT22;22070;50.922;5.430;2023-04-24T08:09:25;8.60;99.90
36002;DHT22;22070;50.922;5.430;2023-04-24T08:11:50;8.60;99.90
36002;DHT22;22070;50.922;5.430;2023-04-24T08:14:16;8.60;99.90
36002;DHT22;22070;50.922;5.430;2023-04-24T08:16:41;8.60;99.90
36002;DHT22;22070;50.922;5.430;2023-04-24T08:19:08;8.60;99.90
36002;DHT22;22070;50.922;5.430;2023-04-24T08:21:33;8.70;99.90
36002;DHT22;22070;50.922;5.430;2023-04-24T08:23:59;8.70;99.90
36002;DHT22;22070;50.922;5.430;2023-04-24T08:26:24;8.70;99.90
36002;DHT22;22070;50.922;5.430;2023-04-24T08:28:50;8.70;99.90
36002;DHT22;22070;50.922;5.430;2023-04-24T08:31:16;8.70;99.90
36002;DHT22;22070;50.922;5.430;2023-04-24T08:33:41;8.80;99.90
36002;DHT22;22070;50.922;5.430;2023-04-24T08:36:10;8.80;99.90
36002;DHT22;22070;50.922;5.430;2023-04-24T08:38:36;8.80;99.90
36002;DHT22;22070;50.922;5.430;2023-04-24T08:41:01;8.90;99.90
36002;DHT22;22070;50.922;5.430;2023-04-24T08:43:27;8.90;99.90
36002;DHT22;22070;50.922;5.430;2023-04-24T08:45:56;9.00;99.90
36002;DHT22;22070;50.922;5.430;2023-04-24T08:48:23;9.00;99.90
36002;DHT22;22070;50.922;5.430;2023-04-24T08:50:50;9.10;99.90
36002;DHT22;22070;50.922;5.430;2023-04-24T08:53:18;9.10;99.90
36002;DHT22;22070;50.922;5.430;2023-04-24T08:55:44;9.20;99.90
36002;DHT22;22070;50.922;5.430;2023-04-24T08:58:11;9.20;99.90
36002;DHT22;22070;50.922;5.430;2023-04-24T09:00:39;9.20;99.90
36002;DHT22;22070;50.922;5.430;2023-04-24T09:03:05;9.40;99.90
36002;DHT22;22070;50.922;5.430;2023-04-24T09:05:32;9.50;99.90
36002;DHT22;22070;50.922;5.430;2023-04-24T09:07:59;9.60;99.90
36002;DHT22;22070;50.922;5.430;2023-04-24T09:10:27;9.50;99.90
36002;DHT22;22070;50.922;5.430;2023-04-24T09:12:56;9.50;99.90
36002;DHT22;22070;50.922;5.430;2023-04-24T09:15:24;9.50;99.90
36002;DHT22;22070;50.922;5.430;2023-04-24T09:17:50;9.40;99.90
36002;DHT22;22070;50.922;5.430;2023-04-24T09:20:16;9.30;99.90
36002;DHT22;22070;50.922;5.430;2023-04-24T09:22:42;9.20;99.90
36002;DHT22;22070;50.922;5.430;2023-04-24T09:25:10;9.10;99.90
36002;DHT22;22070;50.922;5.430;2023-04-24T09:27:42;9.10;99.90
36002;DHT22;22070;50.922;5.430;2023-04-24T09:30:09;9.00;99.90
36002;DHT22;22070;50.922;5.430;2023-04-24T09:32:35;9.00;99.90
36002;DHT22;22070;50.922;5.430;2023-04-24T09:37:38;9.20;99.90
36002;DHT22;22070;50.922;5.430;2023-04-24T09:42:33;9.30;99.90
36002;DHT22;22070;50.922;5.430;2023-04-24T09:44:59;9.30;99.90
36002;DHT22;22070;50.922;5.430;2023-04-24T09:47:25;9.50;99.90
36002;DHT22;22070;50.922;5.430;2023-04-24T09:49:50;9.60;99.90
36002;DHT22;22070;50.922;5.430;2023-04-24T09:52:22;9.80;99.90
36002;DHT22;22070;50.922;5.430;2023-04-24T09:54:53;9.80;99.90
36002;DHT22;22070;50.922;5.430;2023-04-24T09:57:19;9.90;99.90
36002;DHT22;22070;50.922;5.430;2023-04-24T09:59:46;10.00;99.90
36002;DHT22;22070;50.922;5.430;2023-04-24T10:02:19;10.10;99.90
36002;DHT22;22070;50.922;5.430;2023-04-24T10:04:55;10.30;99.90
36002;DHT22;22070;50.922;5.430;2023-04-24T10:07:21;10.40;99.90
36002;DHT22;22070;50.922;5.430;2023-04-24T10:09:48;10.50;99.90
36002;DHT22;22070;50.922;5.430;2023-04-24T10:12:14;10.50;99.90
36002;DHT22;22070;50.922;5.430;2023-04-24T10:14:40;10.60;99.90
36002;DHT22;22070;50.922;5.430;2023-04-24T10:17:06;10.70;99.90
36002;DHT22;22070;50.922;5.430;2023-04-24T10:19:33;10.70;99.90
36002;DHT22;22070;50.922;5.430;2023-04-24T10:22:01;10.80;99.90
36002;DHT22;22070;50.922;5.430;2023-04-24T10:24:28;10.90;99.90
36002;DHT22;22070;50.922;5.430;2023-04-24T10:26:55;11.00;99.90
36002;DHT22;22070;50.922;5.430;2023-04-24T10:29:22;10.90;99.90
36002;DHT22;22070;50.922;5.430;2023-04-24T10:31:48;10.80;99.90
36002;DHT22;22070;50.922;5.430;2023-04-24T10:34:15;10.70;99.90
36002;DHT22;22070;50.922;5.430;2023-04-24T10:36:47;10.50;99.90
36002;DHT22;22070;50.922;5.430;2023-04-24T10:39:14;10.40;99.90
36002;DHT22;22070;50.922;5.430;2023-04-24T10:41:41;10.40;99.90
36002;DHT22;22070;50.922;5.430;2023-04-24T10:44:12;10.50;99.90
36002;DHT22;22070;50.922;5.430;2023-04-24T10:46:38;10.80;99.90
36002;DHT22;22070;50.922;5.430;2023-04-24T10:49:05;10.80;99.90
36002;DHT22;22070;50.922;5.430;2023-04-24T10:51:51;10.90;99.90
36002;DHT22;22070;50.922;5.430;2023-04-24T10:54:44;11.00;99.90
36002;DHT22;22070;50.922;5.430;2023-04-24T11:02:36;11.00;99.90
36002;DHT22;22070;50.922;5.430;2023-04-24T11:05:03;11.00;99.90
36002;DHT22;22070;50.922;5.430;2023-04-24T11:07:29;11.00;99.90
36002;DHT22;22070;50.922;5.430;2023-04-24T11:09:58;11.00;99.90
36002;DHT22;22070;50.922;5.430;2023-04-24T11:12:26;11.00;99.90
36002;DHT22;22070;50.922;5.430;2023-04-24T11:17:38;11.00;99.90
36002;DHT22;22070;50.922;5.430;2023-04-24T11:20:16;11.10;99.90
36002;DHT22;22070;50.922;5.430;2023-04-24T11:22:42;11.10;99.90
36002;DHT22;22070;50.922;5.430;2023-04-24T11:25:09;11.10;99.90
36002;DHT22;22070;50.922;5.430;2023-04-24T11:27:44;11.10;99.90
36002;DHT22;22070;50.922;5.430;2023-04-24T11:30:11;10.90;99.90
36002;DHT22;22070;50.922;5.430;2023-04-24T11:35:06;11.00;99.90
36002;DHT22;22070;50.922;5.430;2023-04-24T11:40:04;11.10;99.90
36002;DHT22;22070;50.922;5.430;2023-04-24T11:42:40;11.20;99.90
36002;DHT22;22070;50.922;5.430;2023-04-24T11:45:14;11.30;99.90
36002;DHT22;22070;50.922;5.430;2023-04-24T11:47:40;11.50;99.90
36002;DHT22;22070;50.922;5.430;2023-04-24T11:50:12;11.50;99.90
36002;DHT22;22070;50.922;5.430;2023-04-24T11:52:40;11.50;99.90
36002;DHT22;22070;50.922;5.430;2023-04-24T11:57:53;11.80;99.90
36002;DHT22;22070;50.922;5.430;2023-04-24T12:00:25;11.90;99.90
36002;DHT22;22070;50.922;5.430;2023-04-24T12:02:52;12.00;99.90
36002;DHT22;22070;50.922;5.430;2023-04-24T12:05:28;12.00;99.90
36002;DHT22;22070;50.922;5.430;2023-04-24T12:07:56;12.00;99.90
36002;DHT22;22070;50.922;5.430;2023-04-24T12:10:24;12.10;99.90
36002;DHT22;22070;50.922;5.430;2023-04-24T12:12:50;12.20;99.90
36002;DHT22;22070;50.922;5.430;2023-04-24T12:15:18;12.00;99.90
36002;DHT22;22070;50.922;5.430;2023-04-24T12:17:44;12.10;99.90
36002;DHT22;22070;50.922;5.430;2023-04-24T12:20:11;12.20;99.90
36002;DHT22;22070;50.922;5.430;2023-04-24T12:22:53;12.30;99.90
36002;DHT22;22070;50.922;5.430;2023-04-24T12:25:21;12.30;99.90
36002;DHT22;22070;50.922;5.430;2023-04-24T12:28:14;12.30;99.90
36002;DHT22;22070;50.922;5.430;2023-04-24T12:30:47;12.20;99.90
36002;DHT22;22070;50.922;5.430;2023-04-24T12:33:21;12.00;99.90
36002;DHT22;22070;50.922;5.430;2023-04-24T12:35:48;12.00;99.90
36002;DHT22;22070;50.922;5.430;2023-04-24T12:38:21;12.10;99.90
36002;DHT22;22070;50.922;5.430;2023-04-24T12:40:47;12.20;99.90
36002;DHT22;22070;50.922;5.430;2023-04-24T12:43:19;12.30;99.90
36002;DHT22;22070;50.922;5.430;2023-04-24T12:45:47;12.50;99.90
36002;DHT22;22070;50.922;5.430;2023-04-24T12:48:12;12.40;99.90
36002;DHT22;22070;50.922;5.430;2023-04-24T12:50:42;12.50;99.90
36002;DHT22;22070;50.922;5.430;2023-04-24T12:53:08;12.60;99.90
36002;DHT22;22070;50.922;5.430;2023-04-24T12:55:34;12.60;99.90
36002;DHT22;22070;50.922;5.430;2023-04-24T12:58:00;12.50;99.90
36002;DHT22;22070;50.922;5.430;2023-04-24T13:00:27;12.60;99.90
36002;DHT22;22070;50.922;5.430;2023-04-24T13:02:52;12.70;99.90
36002;DHT22;22070;50.922;5.430;2023-04-24T13:05:18;12.80;99.90
36002;DHT22;22070;50.922;5.430;2023-04-24T13:07:44;12.80;99.90
36002;DHT22;22070;50.922;5.430;2023-04-24T13:10:10;12.70;99.90
36002;DHT22;22070;50.922;5.430;2023-04-24T13:12:35;12.60;99.90
36002;DHT22;22070;50.922;5.430;2023-04-24T13:15:01;12.60;99.90
36002;DHT22;22070;50.922;5.430;2023-04-24T13:17:27;12.50;99.90
36002;DHT22;22070;50.922;5.430;2023-04-24T13:19:54;12.60;99.90
36002;DHT22;22070;50.922;5.430;2023-04-24T13:22:20;12.60;99.90
36002;DHT22;22070;50.922;5.430;2023-04-24T13:24:46;12.70;99.90
36002;DHT22;22070;50.922;5.430;2023-04-24T13:27:15;12.70;99.90
36002;DHT22;22070;50.922;5.430;2023-04-24T13:29:41;12.70;99.90
36002;DHT22;22070;50.922;5.430;2023-04-24T13:32:07;12.70;99.90
36002;DHT22;22070;50.922;5.430;2023-04-24T13:34:33;12.80;99.90
36002;DHT22;22070;50.922;5.430;2023-04-24T13:37:00;13.00;99.90
36002;DHT22;22070;50.922;5.430;2023-04-24T13:39:26;12.90;99.90
36002;DHT22;22070;50.922;5.430;2023-04-24T13:41:53;12.90;99.90
36002;DHT22;22070;50.922;5.430;2023-04-24T13:44:20;13.00;99.90
36002;DHT22;22070;50.922;5.430;2023-04-24T13:46:47;13.10;99.90
36002;DHT22;22070;50.922;5.430;2023-04-24T13:49:14;13.10;99.90
36002;DHT22;22070;50.922;5.430;2023-04-24T13:51:40;13.00;99.90
36002;DHT22;22070;50.922;5.430;2023-04-24T13:54:06;13.10;99.90
36002;DHT22;22070;50.922;5.430;2023-04-24T13:56:32;13.10;99.90
36002;DHT22;22070;50.922;5.430;2023-04-24T13:58:58;13.20;99.90
36002;DHT22;22070;50.922;5.430;2023-04-24T14:01:24;13.50;99.90
36002;DHT22;22070;50.922;5.430;2023-04-24T14:03:54;13.40;99.90
36002;DHT22;22070;50.922;5.430;2023-04-24T14:06:20;13.40;99.90
36002;DHT22;22070;50.922;5.430;2023-04-24T14:08:47;13.20;99.90
36002;DHT22;22070;50.922;5.430;2023-04-24T14:11:13;13.20;99.90
36002;DHT22;22070;50.922;5.430;2023-04-24T14:13:40;13.30;99.90
36002;DHT22;22070;50.922;5.430;2023-04-24T14:16:06;13.30;99.90
36002;DHT22;22070;50.922;5.430;2023-04-24T14:18:32;13.40;99.90
36002;DHT22;22070;50.922;5.430;2023-04-24T14:20:58;13.40;99.90
36002;DHT22;22070;50.922;5.430;2023-04-24T14:23:24;13.30;99.90
36002;DHT22;22070;50.922;5.430;2023-04-24T14:25:50;13.20;99.90
36002;DHT22;22070;50.922;5.430;2023-04-24T14:28:19;13.50;99.90
36002;DHT22;22070;50.922;5.430;2023-04-24T14:30:49;13.60;99.90
36002;DHT22;22070;50.922;5.430;2023-04-24T14:33:15;13.90;99.90
36002;DHT22;22070;50.922;5.430;2023-04-24T14:35:41;13.90;99.90
36002;DHT22;22070;50.922;5.430;2023-04-24T14:38:10;14.00;99.90
36002;DHT22;22070;50.922;5.430;2023-04-24T14:40:36;14.10;99.90
36002;DHT22;22070;50.922;5.430;2023-04-24T14:43:02;14.10;99.90
36002;DHT22;22070;50.922;5.430;2023-04-24T14:45:28;14.00;99.90
36002;DHT22;22070;50.922;5.430;2023-04-24T14:47:55;14.00;99.90
36002;DHT22;22070;50.922;5.430;2023-04-24T14:50:21;13.90;99.90
36002;DHT22;22070;50.922;5.430;2023-04-24T14:52:47;13.80;99.90
36002;DHT22;22070;50.922;5.430;2023-04-24T14:55:13;13.90;99.90
36002;DHT22;22070;50.922;5.430;2023-04-24T14:57:39;13.80;99.90
36002;DHT22;22070;50.922;5.430;2023-04-24T15:00:06;13.70;99.90
36002;DHT22;22070;50.922;5.430;2023-04-24T15:02:34;13.80;99.90
36002;DHT22;22070;50.922;5.430;2023-04-24T15:04:59;14.00;99.90
36002;DHT22;22070;50.922;5.430;2023-04-24T15:07:26;14.20;99.90
36002;DHT22;22070;50.922;5.430;2023-04-24T15:09:52;14.00;99.90
36002;DHT22;22070;50.922;5.430;2023-04-24T15:12:17;13.80;99.90
36002;DHT22;22070;50.922;5.430;2023-04-24T15:14:43;13.80;99.90
36002;DHT22;22070;50.922;5.430;2023-04-24T15:17:09;13.80;99.90
36002;DHT22;22070;50.922;5.430;2023-04-24T15:19:34;13.80;99.90
36002;DHT22;22070;50.922;5.430;2023-04-24T15:22:00;13.60;99.90
36002;DHT22;22070;50.922;5.430;2023-04-24T15:24:26;13.50;99.90
36002;DHT22;22070;50.922;5.430;2023-04-24T15:26:52;13.50;99.90
36002;DHT22;22070;50.922;5.430;2023-04-24T15:29:18;13.60;99.90
36002;DHT22;22070;50.922;5.430;2023-04-24T15:31:44;13.50;99.90
36002;DHT22;22070;50.922;5.430;2023-04-24T15:34:09;13.40;99.90
36002;DHT22;22070;50.922;5.430;2023-04-24T15:36:35;13.50;99.90
36002;DHT22;22070;50.922;5.430;2023-04-24T15:39:02;13.70;99.90
36002;DHT22;22070;50.922;5.430;2023-04-24T15:41:28;14.00;99.90
36002;DHT22;22070;50.922;5.430;2023-04-24T15:43:53;14.00;99.90
36002;DHT22;22070;50.922;5.430;2023-04-24T15:46:19;14.30;99.90
36002;DHT22;22070;50.922;5.430;2023-04-24T15:48:45;14.20;99.90
36002;DHT22;22070;50.922;5.430;2023-04-24T15:51:10;13.90;99.90
36002;DHT22;22070;50.922;5.430;2023-04-24T15:53:36;14.00;99.90
36002;DHT22;22070;50.922;5.430;2023-04-24T15:56:02;13.90;99.90